Searanger — VREG3 — position and weather

sailwx.info

Track history (hours):
 
Tides and Currents Weather Stations Pressure Air Temp Water Temp Dewpoint Dewpoint Depression Visibility Wind Speed Wind Dir Waves Ship Positions

Searanger

Last reported at 2017-Sep-22 01:58 UTC. Time now 2017-Sep-22 19:15 UTC.
Position N 51°55' E 004°12'.

Length 243 m; draft 13.4 m.

Type: Tanker. MMSI: 477192100.

Date/timePositionNaut miles runAvg speedWind from/ knotsBaromVisibWave heightAir tempDewpointWater temp
2017-Sep-22 01:58N 51°55' E 004°12'0 0.0
2017-Sep-22 01:28N 51°55' E 004°12'0 0.0
2017-Sep-22 00:52N 51°55' E 004°12'0 0.0
2017-Sep-22 00:28N 51°55' E 004°12'0 0.0
2017-Sep-21 23:55N 51°55' E 004°12'0 0.0
2017-Sep-21 23:28N 51°55' E 004°12'0 0.0
2017-Sep-21 22:55N 51°55' E 004°12'0 0.0
2017-Sep-21 22:28N 51°55' E 004°12'0 0.0
2017-Sep-21 21:55N 51°55' E 004°12'0 0.0
2017-Sep-21 21:28N 51°55' E 004°12'0 0.0
2017-Sep-21 20:58N 51°55' E 004°12'0 0.0
2017-Sep-21 20:28N 51°55' E 004°12'0 0.0
2017-Sep-21 19:58N 51°55' E 004°12'0 0.0
2017-Sep-21 19:28N 51°55' E 004°12'0 0.0
2017-Sep-21 18:58N 51°55' E 004°12'0 0.0
2017-Sep-21 18:28N 51°55' E 004°12'0 0.0
2017-Sep-21 17:58N 51°55' E 004°12'0 0.0
2017-Sep-21 17:28N 51°55' E 004°12'0 0.0
2017-Sep-21 16:58N 51°55' E 004°12'0 0.0
2017-Sep-21 16:28N 51°55' E 004°12'0 0.0
2017-Sep-21 15:58N 51°55' E 004°12'0 0.0
2017-Sep-21 15:28N 51°55' E 004°12'0 0.0
2017-Sep-21 14:58N 51°55' E 004°12'0 0.0
2017-Sep-21 14:28N 51°55' E 004°12'0 0.0
2017-Sep-21 13:58N 51°55' E 004°12'0 0.0
2017-Sep-21 13:28N 51°55' E 004°12'0 0.0
2017-Sep-21 12:58N 51°55' E 004°12'0 0.0
2017-Sep-21 12:28N 51°55' E 004°12'0 0.0
2017-Sep-21 11:58N 51°55' E 004°12'0 0.0
2017-Sep-21 11:28N 51°55' E 004°12'0 0.5
2017-Sep-21 11:00N 51°55' E 004°12'2 3.3
2017-Sep-21 10:30N 51°57' E 004°10'3 5.4
2017-Sep-21 10:00N 51°58' E 004°07'5 9.6
2017-Sep-21 09:30N 51°60' E 003°59'510.8
2017-Sep-21 09:00N 52°01' E 003°51'4 7.5
2017-Sep-21 08:30N 52°03' E 003°45'3 6.7
2017-Sep-21 08:00N 52°05' E 003°41'3 6.4
2017-Sep-21 07:30N 52°08' E 003°39'3 5.4
2017-Sep-21 06:56N 52°11' E 003°39'0 0.2
2017-Sep-21 06:29N 52°11' E 003°39'0 0.0
2017-Sep-21 05:53N 52°11' E 003°39'0 0.0
2017-Sep-21 05:29N 52°11' E 003°39'0 0.0
2017-Sep-21 04:59N 52°11' E 003°39'0 0.0
2017-Sep-21 04:02N 52°11' E 003°39'0 0.1
2017-Sep-21 03:56N 52°11' E 003°39'0 0.0
2017-Sep-21 03:29N 52°11' E 003°39'0 0.0
2017-Sep-21 02:59N 52°11' E 003°39'0 0.0
2017-Sep-21 02:26N 52°11' E 003°39'0 0.0
2017-Sep-21 01:59N 52°11' E 003°39'0 0.0
2017-Sep-21 01:20N 52°11' E 003°39'0 0.0
2017-Sep-21 00:59N 52°11' E 003°39'0 0.0
2017-Sep-21 00:23N 52°11' E 003°39'0 0.3
2017-Sep-20 23:35N 52°11' E 003°39'0 0.2
2017-Sep-20 23:20N 52°11' E 003°39'0 0.1
2017-Sep-20 22:53N 52°11' E 003°39'0 0.1
2017-Sep-20 22:26N 52°11' E 003°39'0 0.0
2017-Sep-20 21:59N 52°11' E 003°39'0 0.0
2017-Sep-20 21:29N 52°11' E 003°39'0 0.0
2017-Sep-20 20:53N 52°11' E 003°39'0 0.0
2017-Sep-20 20:14N 52°11' E 003°39'0 0.1
2017-Sep-20 17:38N 52°11' E 003°39'0 0.1
2017-Sep-20 17:29N 52°11' E 003°39'0 0.0
2017-Sep-20 16:56N 52°11' E 003°39'0 0.0
2017-Sep-20 16:14N 52°11' E 003°39'0 0.0
2017-Sep-20 15:50N 52°11' E 003°39'0 0.0
2017-Sep-20 15:14N 52°11' E 003°39'0 0.0
2017-Sep-20 14:53N 52°11' E 003°39'0 0.0
2017-Sep-20 13:44N 52°11' E 003°39'0 0.1
2017-Sep-20 13:26N 52°11' E 003°39'0 0.0
2017-Sep-20 12:59N 52°11' E 003°39'0 0.1
2017-Sep-20 12:29N 52°11' E 003°39'0 0.0
2017-Sep-20 05:41N 52°11' E 003°39'0 0.3
2017-Sep-20 05:26N 52°11' E 003°39'0 0.1
2017-Sep-20 04:17N 52°11' E 003°39'0 0.0
2017-Sep-20 03:08N 52°11' E 003°39'0 0.0
2017-Sep-20 02:56N 52°11' E 003°39'0 0.0
2017-Sep-20 02:23N 52°11' E 003°39'0 0.0
2017-Sep-20 01:59N 52°11' E 003°39'0 0.0
2017-Sep-20 00:44N 52°11' E 003°39'0 0.2
2017-Sep-20 00:26N 52°11' E 003°39'0 0.2
2017-Sep-19 22:53N 52°10' E 003°39'0 0.3
2017-Sep-19 22:27N 52°10' E 003°39'2 4.4
2017-Sep-19 21:59N 52°11' E 003°36'31 9.6
2017-Sep-19 18:43N 52°38' E 003°10'313.4
2017-Sep-19 18:30N 52°41' E 003°11'713.0
2017-Sep-19 18:00N 52°48' E 003°12'612.2
2017-Sep-19 17:30N 52°53' E 003°15'32412.7
2017-Sep-18 16:00N 58°15' E 004°10'1213.7
2017-Sep-18 15:05N 58°28' E 004°08'1513.7
2017-Sep-18 13:59N 58°43' E 004°05'11713.5
2017-Sep-18 05:20N 60°40' E 004°20'411.5
2017-Sep-18 04:59N 60°43' E 004°24'510.9
2017-Sep-18 04:30N 60°45' E 004°35'510.3
2017-Sep-18 03:59N 60°44' E 004°45'510.9
2017-Sep-18 03:30N 60°39' E 004°51'2 3.6
2017-Sep-18 03:00N 60°37' E 004°51'0 0.0
2017-Sep-18 02:30N 60°37' E 004°51'0 0.0
2017-Sep-18 02:00N 60°37' E 004°51'0 0.0
2017-Sep-18 01:30N 60°37' E 004°51'0 0.0
2017-Sep-18 01:00N 60°37' E 004°51'0 0.0
2017-Sep-18 00:30N 60°37' E 004°51'0 0.0
2017-Sep-18 00:00N 60°37' E 004°51'0 0.0
2017-Sep-17 23:30N 60°37' E 004°51'0 0.0
2017-Sep-17 23:00N 60°37' E 004°51'0 0.0
2017-Sep-17 22:30N 60°37' E 004°51'0 0.0
2017-Sep-17 22:00N 60°37' E 004°51'0 0.0
2017-Sep-17 21:30N 60°37' E 004°51'0 0.0
2017-Sep-17 21:00N 60°37' E 004°51'0 0.0
2017-Sep-17 20:30N 60°37' E 004°51'0 0.0
2017-Sep-17 20:00N 60°37' E 004°51'0 0.0
2017-Sep-17 19:30N 60°37' E 004°51'0 0.0
2017-Sep-17 19:00N 60°37' E 004°51'0 0.0
2017-Sep-17 18:30N 60°37' E 004°51'0 0.0
2017-Sep-17 18:00N 60°37' E 004°51'0 0.0
2017-Sep-17 17:30N 60°37' E 004°51'0 0.0
2017-Sep-17 17:00N 60°37' E 004°51'0 0.0
2017-Sep-17 16:30N 60°37' E 004°51'0 0.0
2017-Sep-17 16:00N 60°37' E 004°51'0 0.0
2017-Sep-17 15:30N 60°37' E 004°51'0 0.0
2017-Sep-17 15:00N 60°37' E 004°51'0 0.0
2017-Sep-17 14:30N 60°37' E 004°51'0 0.0
2017-Sep-17 14:00N 60°37' E 004°51'0 0.0
2017-Sep-17 13:30N 60°37' E 004°51'0 0.0
2017-Sep-17 13:00N 60°37' E 004°51'0 0.0
2017-Sep-17 12:30N 60°37' E 004°51'0 0.0
2017-Sep-17 12:00N 60°37' E 004°51'0 0.0
2017-Sep-17 11:30N 60°37' E 004°51'0 0.0
2017-Sep-17 11:00N 60°37' E 004°51'0 0.0
2017-Sep-17 10:30N 60°37' E 004°51'0 0.0
2017-Sep-17 10:00N 60°37' E 004°51'0 0.0
2017-Sep-17 09:30N 60°37' E 004°51'0 0.0
2017-Sep-17 09:00N 60°37' E 004°51'0 0.0
2017-Sep-17 08:30N 60°37' E 004°51'0 0.0
2017-Sep-17 08:00N 60°37' E 004°51'0 0.0
2017-Sep-17 07:30N 60°37' E 004°51'0 0.4
2017-Sep-17 07:00N 60°38' E 004°52'3 6.4
2017-Sep-17 06:30N 60°41' E 004°50'510.0
2017-Sep-17 06:00N 60°44' E 004°43'4 8.6
2017-Sep-17 05:30N 60°45' E 004°34'610.9
2017-Sep-17 05:00N 60°42' E 004°25'9114.5
2017-Sep-16 22:41N 59°11' E 004°10'314.5
2017-Sep-16 22:30N 59°08' E 004°10'1114.2
2017-Sep-16 21:44N 58°57' E 004°10'1313.9
2017-Sep-16 20:46N 58°44' E 004°10'414.0
2017-Sep-16 20:30N 58°40' E 004°09'714.4
2017-Sep-16 20:00N 58°33' E 004°08'814.3
2017-Sep-16 19:29N 58°26' E 004°06'409 8.8
2017-Sep-14 21:15N 51°41' E 002°27'314.4
2017-Sep-14 21:00N 51°38' E 002°23'714.5
2017-Sep-14 20:30N 51°33' E 002°16'714.0
2017-Sep-14 20:00N 51°26' E 002°12'714.0
2017-Sep-14 19:30N 51°20' E 002°08'714.2
2017-Sep-14 19:00N 51°14' E 002°02'714.7
2017-Sep-14 18:30N 51°10' E 001°52'714.8
2017-Sep-14 18:00N 51°05' E 001°43'714.9
2017-Sep-14 17:30N 51°00' E 001°34'714.4
2017-Sep-14 17:00N 50°55' E 001°27'714.2
2017-Sep-14 16:30N 50°48' E 001°23'713.8
2017-Sep-14 16:00N 50°42' E 001°18'2014.4
2017-Sep-14 14:36N 50°30' E 000°53'114.8
2017-Sep-14 14:30N 50°29' E 000°51'714.7
2017-Sep-14 14:00N 50°26' E 000°40'1014.7
2017-Sep-14 13:19N 50°22' E 000°26'614.6
2017-Sep-14 12:53N 50°20' E 000°17'514.5
2017-Sep-14 12:30N 50°18' E 000°09'713.6
2017-Sep-14 12:00N 50°13' E 000°01'4110.6
2017-Sep-14 08:07N 49°33' W 000°15'412.4
2017-Sep-14 07:50N 49°32' W 000°10'412.3
2017-Sep-14 07:30N 49°31' W 000°04'612.1
2017-Sep-14 07:00N 49°29' E 000°05'3 5.5
2017-Sep-14 06:28N 49°28' E 000°09'0 0.0
2017-Sep-14 05:58N 49°28' E 000°09'0 0.0
2017-Sep-14 05:28N 49°28' E 000°09'0 0.0
2017-Sep-14 04:58N 49°28' E 000°09'0 0.0
2017-Sep-14 04:28N 49°28' E 000°09'0 0.0
2017-Sep-14 03:58N 49°28' E 000°09'0 0.0
2017-Sep-14 03:22N 49°28' E 000°09'0 0.0
2017-Sep-14 02:58N 49°28' E 000°09'0 0.0
2017-Sep-14 02:28N 49°28' E 000°09'0 0.0
2017-Sep-14 01:58N 49°28' E 000°09'0 0.0
2017-Sep-14 01:28N 49°28' E 000°09'0 0.0
2017-Sep-14 00:58N 49°28' E 000°09'0 0.0
2017-Sep-14 00:28N 49°28' E 000°09'0 0.0
2017-Sep-13 23:58N 49°28' E 000°09'0 0.0
2017-Sep-13 23:28N 49°28' E 000°09'0 0.0
2017-Sep-13 22:58N 49°28' E 000°09'0 0.0
2017-Sep-13 22:28N 49°28' E 000°09'0 0.0
2017-Sep-13 21:58N 49°28' E 000°09'0 0.0
2017-Sep-13 21:28N 49°28' E 000°09'0 0.0
2017-Sep-13 20:58N 49°28' E 000°09'0 0.0
2017-Sep-13 20:28N 49°28' E 000°09'0 0.0
2017-Sep-13 19:58N 49°28' E 000°09'0 0.0
2017-Sep-13 19:28N 49°28' E 000°09'0 0.0
2017-Sep-13 18:58N 49°28' E 000°09'0 0.0
2017-Sep-13 18:28N 49°28' E 000°09'0 0.0
2017-Sep-13 17:58N 49°28' E 000°09'0 0.0
2017-Sep-13 17:28N 49°28' E 000°09'0 0.0
2017-Sep-13 16:58N 49°28' E 000°09'0 0.0
2017-Sep-13 16:28N 49°28' E 000°09'0 0.0
2017-Sep-13 15:58N 49°28' E 000°09'0 0.0
2017-Sep-13 15:28N 49°28' E 000°09'0 0.0
2017-Sep-13 14:58N 49°28' E 000°09'0 0.0
2017-Sep-13 14:28N 49°28' E 000°09'0 0.0
2017-Sep-13 13:58N 49°28' E 000°09'0 0.0
2017-Sep-13 13:28N 49°28' E 000°09'0 0.0
2017-Sep-13 12:58N 49°28' E 000°09'0 0.0
2017-Sep-13 12:28N 49°28' E 000°09'0 0.0
2017-Sep-13 11:58N 49°28' E 000°09'0 0.0
2017-Sep-13 11:28N 49°28' E 000°09'0 0.0
2017-Sep-13 10:58N 49°28' E 000°09'0 0.0
2017-Sep-13 10:28N 49°28' E 000°09'0 0.0
2017-Sep-13 09:58N 49°28' E 000°09'0 0.0
2017-Sep-13 09:25N 49°28' E 000°09'0 0.0
2017-Sep-13 08:58N 49°28' E 000°09'0 0.0
2017-Sep-13 08:28N 49°28' E 000°09'0 0.0
2017-Sep-13 07:58N 49°28' E 000°09'0 0.0
2017-Sep-13 07:28N 49°28' E 000°09'0 0.0
2017-Sep-13 06:58N 49°28' E 000°09'0 0.0
2017-Sep-13 06:28N 49°28' E 000°09'0 0.0
2017-Sep-13 05:58N 49°28' E 000°09'0 0.0
2017-Sep-13 05:28N 49°28' E 000°09'0 0.0
2017-Sep-13 04:58N 49°28' E 000°09'0 0.0
2017-Sep-13 04:28N 49°28' E 000°09'0 0.0
2017-Sep-13 03:58N 49°28' E 000°09'0 0.0
2017-Sep-13 03:28N 49°28' E 000°09'0 0.0
2017-Sep-13 02:58N 49°28' E 000°09'0 0.0
2017-Sep-13 02:28N 49°28' E 000°09'0 0.0
2017-Sep-13 01:58N 49°28' E 000°09'0 0.0
2017-Sep-13 01:28N 49°28' E 000°09'0 0.0
2017-Sep-13 01:01N 49°28' E 000°09'0 0.5
2017-Sep-13 00:30N 49°28' E 000°09'2 4.5
2017-Sep-13 00:00N 49°29' E 000°06'5 9.9
2017-Sep-12 23:31N 49°30' W 000°01'510.8
2017-Sep-12 23:01N 49°32' W 000°09'2 4.8
2017-Sep-12 22:31N 49°34' W 000°11'2 4.5
2017-Sep-12 22:01N 49°37' W 000°11'3 5.2
2017-Sep-12 21:31N 49°39' W 000°12'2 3.2
2017-Sep-12 21:00N 49°40' W 000°14'6 8.8
2017-Sep-12 20:21N 49°43' W 000°21'2 1.9
2017-Sep-12 19:27N 49°44' W 000°23'3 0.7
2017-Sep-12 15:24N 49°42' W 000°20'0 0.6
2017-Sep-12 14:53N 49°42' W 000°20'3 7.3
2017-Sep-12 14:30N 49°44' W 000°22'3612.1
2017-Sep-12 11:31N 50°19' W 000°04'713.5
2017-Sep-12 11:00N 50°26' W 000°04'510.2
2017-Sep-12 10:31N 50°29' E 000°02'712.8
2017-Sep-12 10:00N 50°31' E 000°12'713.4
2017-Sep-12 09:30N 50°32' E 000°22'713.9
2017-Sep-12 09:00N 50°34' E 000°32'714.1
2017-Sep-12 08:30N 50°37' E 000°42'714.5
2017-Sep-12 08:00N 50°41' E 000°51'714.2
2017-Sep-12 07:30N 50°46' E 001°00'713.7
2017-Sep-12 07:00N 50°50' E 001°09'2312.1
2017-Sep-12 05:07N 51°06' E 001°35'110.6
2017-Sep-12 05:00N 51°07' E 001°36'510.6
2017-Sep-12 04:30N 51°10' E 001°42'510.9
2017-Sep-12 04:00N 51°15' E 001°48'611.3
2017-Sep-12 03:30N 51°19' E 001°53'611.9
2017-Sep-12 03:00N 51°24' E 001°58'611.8
2017-Sep-12 02:30N 51°29' E 002°04'613.0
2017-Sep-12 02:00N 51°34' E 002°11'  
Track history (hours):
 
Tides and Currents Weather Stations Pressure Air Temp Water Temp Dewpoint Dewpoint Depression Visibility Wind Speed Wind Dir Waves Ship Positions

Searanger

Last reported at 2017-Sep-22 01:58 UTC. Time now 2017-Sep-22 19:15 UTC.
Position N 51°55' E 004°12'.

Length 243 m; draft 13.4 m.

Type: Tanker. MMSI: 477192100.

Date/timePositionNaut miles runAvg speedWind from/ knotsBaromVisibWave heightAir tempDewpointWater temp
2017-Sep-22 01:58N 51°55' E 004°12'0 0.0
2017-Sep-22 01:28N 51°55' E 004°12'0 0.0
2017-Sep-22 00:52N 51°55' E 004°12'0 0.0
2017-Sep-22 00:28N 51°55' E 004°12'0 0.0
2017-Sep-21 23:55N 51°55' E 004°12'0 0.0
2017-Sep-21 23:28N 51°55' E 004°12'0 0.0
2017-Sep-21 22:55N 51°55' E 004°12'0 0.0
2017-Sep-21 22:28N 51°55' E 004°12'0 0.0
2017-Sep-21 21:55N 51°55' E 004°12'0 0.0
2017-Sep-21 21:28N 51°55' E 004°12'0 0.0
2017-Sep-21 20:58N 51°55' E 004°12'0 0.0
2017-Sep-21 20:28N 51°55' E 004°12'0 0.0
2017-Sep-21 19:58N 51°55' E 004°12'0 0.0
2017-Sep-21 19:28N 51°55' E 004°12'0 0.0
2017-Sep-21 18:58N 51°55' E 004°12'0 0.0
2017-Sep-21 18:28N 51°55' E 004°12'0 0.0
2017-Sep-21 17:58N 51°55' E 004°12'0 0.0
2017-Sep-21 17:28N 51°55' E 004°12'0 0.0
2017-Sep-21 16:58N 51°55' E 004°12'0 0.0
2017-Sep-21 16:28N 51°55' E 004°12'0 0.0
2017-Sep-21 15:58N 51°55' E 004°12'0 0.0
2017-Sep-21 15:28N 51°55' E 004°12'0 0.0
2017-Sep-21 14:58N 51°55' E 004°12'0 0.0
2017-Sep-21 14:28N 51°55' E 004°12'0 0.0
2017-Sep-21 13:58N 51°55' E 004°12'0 0.0
2017-Sep-21 13:28N 51°55' E 004°12'0 0.0
2017-Sep-21 12:58N 51°55' E 004°12'0 0.0
2017-Sep-21 12:28N 51°55' E 004°12'0 0.0
2017-Sep-21 11:58N 51°55' E 004°12'0 0.0
2017-Sep-21 11:28N 51°55' E 004°12'0 0.5
2017-Sep-21 11:00N 51°55' E 004°12'2 3.3
2017-Sep-21 10:30N 51°57' E 004°10'3 5.4
2017-Sep-21 10:00N 51°58' E 004°07'5 9.6
2017-Sep-21 09:30N 51°60' E 003°59'510.8
2017-Sep-21 09:00N 52°01' E 003°51'4 7.5
2017-Sep-21 08:30N 52°03' E 003°45'3 6.7
2017-Sep-21 08:00N 52°05' E 003°41'3 6.4
2017-Sep-21 07:30N 52°08' E 003°39'3 5.4
2017-Sep-21 06:56N 52°11' E 003°39'0 0.2
2017-Sep-21 06:29N 52°11' E 003°39'0 0.0
2017-Sep-21 05:53N 52°11' E 003°39'0 0.0
2017-Sep-21 05:29N 52°11' E 003°39'0 0.0
2017-Sep-21 04:59N 52°11' E 003°39'0 0.0
2017-Sep-21 04:02N 52°11' E 003°39'0 0.1
2017-Sep-21 03:56N 52°11' E 003°39'0 0.0
2017-Sep-21 03:29N 52°11' E 003°39'0 0.0
2017-Sep-21 02:59N 52°11' E 003°39'0 0.0
2017-Sep-21 02:26N 52°11' E 003°39'0 0.0
2017-Sep-21 01:59N 52°11' E 003°39'0 0.0
2017-Sep-21 01:20N 52°11' E 003°39'0 0.0
2017-Sep-21 00:59N 52°11' E 003°39'0 0.0
2017-Sep-21 00:23N 52°11' E 003°39'0 0.3
2017-Sep-20 23:35N 52°11' E 003°39'0 0.2
2017-Sep-20 23:20N 52°11' E 003°39'0 0.1
2017-Sep-20 22:53N 52°11' E 003°39'0 0.1
2017-Sep-20 22:26N 52°11' E 003°39'0 0.0
2017-Sep-20 21:59N 52°11' E 003°39'0 0.0
2017-Sep-20 21:29N 52°11' E 003°39'0 0.0
2017-Sep-20 20:53N 52°11' E 003°39'0 0.0
2017-Sep-20 20:14N 52°11' E 003°39'0 0.1
2017-Sep-20 17:38N 52°11' E 003°39'0 0.1
2017-Sep-20 17:29N 52°11' E 003°39'0 0.0
2017-Sep-20 16:56N 52°11' E 003°39'0 0.0
2017-Sep-20 16:14N 52°11' E 003°39'0 0.0
2017-Sep-20 15:50N 52°11' E 003°39'0 0.0
2017-Sep-20 15:14N 52°11' E 003°39'0 0.0
2017-Sep-20 14:53N 52°11' E 003°39'0 0.0
2017-Sep-20 13:44N 52°11' E 003°39'0 0.1
2017-Sep-20 13:26N 52°11' E 003°39'0 0.0
2017-Sep-20 12:59N 52°11' E 003°39'0 0.1
2017-Sep-20 12:29N 52°11' E 003°39'0 0.0
2017-Sep-20 05:41N 52°11' E 003°39'0 0.3
2017-Sep-20 05:26N 52°11' E 003°39'0 0.1
2017-Sep-20 04:17N 52°11' E 003°39'0 0.0
2017-Sep-20 03:08N 52°11' E 003°39'0 0.0
2017-Sep-20 02:56N 52°11' E 003°39'0 0.0
2017-Sep-20 02:23N 52°11' E 003°39'0 0.0
2017-Sep-20 01:59N 52°11' E 003°39'0 0.0
2017-Sep-20 00:44N 52°11' E 003°39'0 0.2
2017-Sep-20 00:26N 52°11' E 003°39'0 0.2
2017-Sep-19 22:53N 52°10' E 003°39'0 0.3
2017-Sep-19 22:27N 52°10' E 003°39'2 4.4
2017-Sep-19 21:59N 52°11' E 003°36'31 9.6
2017-Sep-19 18:43N 52°38' E 003°10'313.4
2017-Sep-19 18:30N 52°41' E 003°11'713.0
2017-Sep-19 18:00N 52°48' E 003°12'612.2
2017-Sep-19 17:30N 52°53' E 003°15'32412.7
2017-Sep-18 16:00N 58°15' E 004°10'1213.7
2017-Sep-18 15:05N 58°28' E 004°08'1513.7
2017-Sep-18 13:59N 58°43' E 004°05'11713.5
2017-Sep-18 05:20N 60°40' E 004°20'411.5
2017-Sep-18 04:59N 60°43' E 004°24'510.9
2017-Sep-18 04:30N 60°45' E 004°35'510.3
2017-Sep-18 03:59N 60°44' E 004°45'510.9
2017-Sep-18 03:30N 60°39' E 004°51'2 3.6
2017-Sep-18 03:00N 60°37' E 004°51'0 0.0
2017-Sep-18 02:30N 60°37' E 004°51'0 0.0
2017-Sep-18 02:00N 60°37' E 004°51'0 0.0
2017-Sep-18 01:30N 60°37' E 004°51'0 0.0
2017-Sep-18 01:00N 60°37' E 004°51'0 0.0
2017-Sep-18 00:30N 60°37' E 004°51'0 0.0
2017-Sep-18 00:00N 60°37' E 004°51'0 0.0
2017-Sep-17 23:30N 60°37' E 004°51'0 0.0
2017-Sep-17 23:00N 60°37' E 004°51'0 0.0
2017-Sep-17 22:30N 60°37' E 004°51'0 0.0
2017-Sep-17 22:00N 60°37' E 004°51'0 0.0
2017-Sep-17 21:30N 60°37' E 004°51'0 0.0
2017-Sep-17 21:00N 60°37' E 004°51'0 0.0
2017-Sep-17 20:30N 60°37' E 004°51'0 0.0
2017-Sep-17 20:00N 60°37' E 004°51'0 0.0
2017-Sep-17 19:30N 60°37' E 004°51'0 0.0
2017-Sep-17 19:00N 60°37' E 004°51'0 0.0
2017-Sep-17 18:30N 60°37' E 004°51'0 0.0
2017-Sep-17 18:00N 60°37' E 004°51'0 0.0
2017-Sep-17 17:30N 60°37' E 004°51'0 0.0
2017-Sep-17 17:00N 60°37' E 004°51'0 0.0
2017-Sep-17 16:30N 60°37' E 004°51'0 0.0
2017-Sep-17 16:00N 60°37' E 004°51'0 0.0
2017-Sep-17 15:30N 60°37' E 004°51'0 0.0
2017-Sep-17 15:00N 60°37' E 004°51'0 0.0
2017-Sep-17 14:30N 60°37' E 004°51'0 0.0
2017-Sep-17 14:00N 60°37' E 004°51'0 0.0
2017-Sep-17 13:30N 60°37' E 004°51'0 0.0
2017-Sep-17 13:00N 60°37' E 004°51'0 0.0
2017-Sep-17 12:30N 60°37' E 004°51'0 0.0
2017-Sep-17 12:00N 60°37' E 004°51'0 0.0
2017-Sep-17 11:30N 60°37' E 004°51'0 0.0
2017-Sep-17 11:00N 60°37' E 004°51'0 0.0
2017-Sep-17 10:30N 60°37' E 004°51'0 0.0
2017-Sep-17 10:00N 60°37' E 004°51'0 0.0
2017-Sep-17 09:30N 60°37' E 004°51'0 0.0
2017-Sep-17 09:00N 60°37' E 004°51'0 0.0
2017-Sep-17 08:30N 60°37' E 004°51'0 0.0
2017-Sep-17 08:00N 60°37' E 004°51'0 0.0
2017-Sep-17 07:30N 60°37' E 004°51'0 0.4
2017-Sep-17 07:00N 60°38' E 004°52'3 6.4
2017-Sep-17 06:30N 60°41' E 004°50'510.0
2017-Sep-17 06:00N 60°44' E 004°43'4 8.6
2017-Sep-17 05:30N 60°45' E 004°34'610.9
2017-Sep-17 05:00N 60°42' E 004°25'9114.5
2017-Sep-16 22:41N 59°11' E 004°10'314.5
2017-Sep-16 22:30N 59°08' E 004°10'1114.2
2017-Sep-16 21:44N 58°57' E 004°10'1313.9
2017-Sep-16 20:46N 58°44' E 004°10'414.0
2017-Sep-16 20:30N 58°40' E 004°09'714.4
2017-Sep-16 20:00N 58°33' E 004°08'814.3
2017-Sep-16 19:29N 58°26' E 004°06'409 8.8
2017-Sep-14 21:15N 51°41' E 002°27'314.4
2017-Sep-14 21:00N 51°38' E 002°23'714.5
2017-Sep-14 20:30N 51°33' E 002°16'714.0
2017-Sep-14 20:00N 51°26' E 002°12'714.0
2017-Sep-14 19:30N 51°20' E 002°08'714.2
2017-Sep-14 19:00N 51°14' E 002°02'714.7
2017-Sep-14 18:30N 51°10' E 001°52'714.8
2017-Sep-14 18:00N 51°05' E 001°43'714.9
2017-Sep-14 17:30N 51°00' E 001°34'714.4
2017-Sep-14 17:00N 50°55' E 001°27'714.2
2017-Sep-14 16:30N 50°48' E 001°23'713.8
2017-Sep-14 16:00N 50°42' E 001°18'2014.4
2017-Sep-14 14:36N 50°30' E 000°53'114.8
2017-Sep-14 14:30N 50°29' E 000°51'714.7
2017-Sep-14 14:00N 50°26' E 000°40'1014.7
2017-Sep-14 13:19N 50°22' E 000°26'614.6
2017-Sep-14 12:53N 50°20' E 000°17'514.5
2017-Sep-14 12:30N 50°18' E 000°09'713.6
2017-Sep-14 12:00N 50°13' E 000°01'4110.6
2017-Sep-14 08:07N 49°33' W 000°15'412.4
2017-Sep-14 07:50N 49°32' W 000°10'412.3
2017-Sep-14 07:30N 49°31' W 000°04'612.1
2017-Sep-14 07:00N 49°29' E 000°05'3 5.5
2017-Sep-14 06:28N 49°28' E 000°09'0 0.0
2017-Sep-14 05:58N 49°28' E 000°09'0 0.0
2017-Sep-14 05:28N 49°28' E 000°09'0 0.0
2017-Sep-14 04:58N 49°28' E 000°09'0 0.0
2017-Sep-14 04:28N 49°28' E 000°09'0 0.0
2017-Sep-14 03:58N 49°28' E 000°09'0 0.0
2017-Sep-14 03:22N 49°28' E 000°09'0 0.0
2017-Sep-14 02:58N 49°28' E 000°09'0 0.0
2017-Sep-14 02:28N 49°28' E 000°09'0 0.0
2017-Sep-14 01:58N 49°28' E 000°09'0 0.0
2017-Sep-14 01:28N 49°28' E 000°09'0 0.0
2017-Sep-14 00:58N 49°28' E 000°09'0 0.0
2017-Sep-14 00:28N 49°28' E 000°09'0 0.0
2017-Sep-13 23:58N 49°28' E 000°09'0 0.0
2017-Sep-13 23:28N 49°28' E 000°09'0 0.0
2017-Sep-13 22:58N 49°28' E 000°09'0 0.0
2017-Sep-13 22:28N 49°28' E 000°09'0 0.0
2017-Sep-13 21:58N 49°28' E 000°09'0 0.0
2017-Sep-13 21:28N 49°28' E 000°09'0 0.0
2017-Sep-13 20:58N 49°28' E 000°09'0 0.0
2017-Sep-13 20:28N 49°28' E 000°09'0 0.0
2017-Sep-13 19:58N 49°28' E 000°09'0 0.0
2017-Sep-13 19:28N 49°28' E 000°09'0 0.0
2017-Sep-13 18:58N 49°28' E 000°09'0 0.0
2017-Sep-13 18:28N 49°28' E 000°09'0 0.0
2017-Sep-13 17:58N 49°28' E 000°09'0 0.0
2017-Sep-13 17:28N 49°28' E 000°09'0 0.0
2017-Sep-13 16:58N 49°28' E 000°09'0 0.0
2017-Sep-13 16:28N 49°28' E 000°09'0 0.0
2017-Sep-13 15:58N 49°28' E 000°09'0 0.0
2017-Sep-13 15:28N 49°28' E 000°09'0 0.0
2017-Sep-13 14:58N 49°28' E 000°09'0 0.0
2017-Sep-13 14:28N 49°28' E 000°09'0 0.0
2017-Sep-13 13:58N 49°28' E 000°09'0 0.0
2017-Sep-13 13:28N 49°28' E 000°09'0 0.0
2017-Sep-13 12:58N 49°28' E 000°09'0 0.0
2017-Sep-13 12:28N 49°28' E 000°09'0 0.0
2017-Sep-13 11:58N 49°28' E 000°09'0 0.0
2017-Sep-13 11:28N 49°28' E 000°09'0 0.0
2017-Sep-13 10:58N 49°28' E 000°09'0 0.0
2017-Sep-13 10:28N 49°28' E 000°09'0 0.0
2017-Sep-13 09:58N 49°28' E 000°09'0 0.0
2017-Sep-13 09:25N 49°28' E 000°09'0 0.0
2017-Sep-13 08:58N 49°28' E 000°09'0 0.0
2017-Sep-13 08:28N 49°28' E 000°09'0 0.0
2017-Sep-13 07:58N 49°28' E 000°09'0 0.0
2017-Sep-13 07:28N 49°28' E 000°09'0 0.0
2017-Sep-13 06:58N 49°28' E 000°09'0 0.0
2017-Sep-13 06:28N 49°28' E 000°09'0 0.0
2017-Sep-13 05:58N 49°28' E 000°09'0 0.0
2017-Sep-13 05:28N 49°28' E 000°09'0 0.0
2017-Sep-13 04:58N 49°28' E 000°09'0 0.0
2017-Sep-13 04:28N 49°28' E 000°09'0 0.0
2017-Sep-13 03:58N 49°28' E 000°09'0 0.0
2017-Sep-13 03:28N 49°28' E 000°09'0 0.0
2017-Sep-13 02:58N 49°28' E 000°09'0 0.0
2017-Sep-13 02:28N 49°28' E 000°09'0 0.0
2017-Sep-13 01:58N 49°28' E 000°09'0 0.0
2017-Sep-13 01:28N 49°28' E 000°09'0 0.0
2017-Sep-13 01:01N 49°28' E 000°09'0 0.5
2017-Sep-13 00:30N 49°28' E 000°09'2 4.5
2017-Sep-13 00:00N 49°29' E 000°06'5 9.9
2017-Sep-12 23:31N 49°30' W 000°01'510.8
2017-Sep-12 23:01N 49°32' W 000°09'2 4.8
2017-Sep-12 22:31N 49°34' W 000°11'2 4.5
2017-Sep-12 22:01N 49°37' W 000°11'3 5.2
2017-Sep-12 21:31N 49°39' W 000°12'2 3.2
2017-Sep-12 21:00N 49°40' W 000°14'6 8.8
2017-Sep-12 20:21N 49°43' W 000°21'2 1.9
2017-Sep-12 19:27N 49°44' W 000°23'3 0.7
2017-Sep-12 15:24N 49°42' W 000°20'0 0.6
2017-Sep-12 14:53N 49°42' W 000°20'3 7.3
2017-Sep-12 14:30N 49°44' W 000°22'3612.1
2017-Sep-12 11:31N 50°19' W 000°04'713.5
2017-Sep-12 11:00N 50°26' W 000°04'510.2
2017-Sep-12 10:31N 50°29' E 000°02'712.8
2017-Sep-12 10:00N 50°31' E 000°12'713.4
2017-Sep-12 09:30N 50°32' E 000°22'713.9
2017-Sep-12 09:00N 50°34' E 000°32'714.1
2017-Sep-12 08:30N 50°37' E 000°42'714.5
2017-Sep-12 08:00N 50°41' E 000°51'714.2
2017-Sep-12 07:30N 50°46' E 001°00'713.7
2017-Sep-12 07:00N 50°50' E 001°09'2312.1
2017-Sep-12 05:07N 51°06' E 001°35'110.6
2017-Sep-12 05:00N 51°07' E 001°36'510.6
2017-Sep-12 04:30N 51°10' E 001°42'510.9
2017-Sep-12 04:00N 51°15' E 001°48'611.3
2017-Sep-12 03:30N 51°19' E 001°53'611.9
2017-Sep-12 03:00N 51°24' E 001°58'611.8
2017-Sep-12 02:30N 51°29' E 002°04'613.0
2017-Sep-12 02:00N 51°34' E 002°11'  

Dump ship's entire track history